createdAt,value
2023-05-14T00:00:07.405Z,12.66
2023-05-14T00:01:07.429Z,12.64
2023-05-14T00:02:07.430Z,12.62
2023-05-14T00:03:07.646Z,12.62
2023-05-14T00:04:07.532Z,12.63
2023-05-14T00:05:07.374Z,12.64
2023-05-14T00:06:07.385Z,12.60
2023-05-14T00:07:07.377Z,12.60
2023-05-14T00:08:07.334Z,12.57
2023-05-14T00:09:07.406Z,12.56
2023-05-14T00:10:07.339Z,12.52
2023-05-14T00:11:07.292Z,12.52
2023-05-14T00:12:07.324Z,12.49
2023-05-14T00:13:07.254Z,12.49
2023-05-14T00:14:07.289Z,12.48
2023-05-14T00:15:07.313Z,12.48
2023-05-14T00:16:07.332Z,12.46
2023-05-14T00:17:07.249Z,12.45
2023-05-14T00:18:07.361Z,12.45
2023-05-14T00:19:07.279Z,12.46
2023-05-14T00:20:07.216Z,12.41
2023-05-14T00:21:07.288Z,12.38
2023-05-14T00:22:07.188Z,12.39
2023-05-14T00:23:07.181Z,12.39
2023-05-14T00:24:07.157Z,12.38
2023-05-14T00:25:07.142Z,12.38
2023-05-14T00:26:07.140Z,12.38
2023-05-14T00:27:07.126Z,12.37
2023-05-14T00:28:07.108Z,12.38
2023-05-14T00:29:07.094Z,12.38
2023-05-14T00:30:07.180Z,12.39
2023-05-14T00:31:07.114Z,12.41
2023-05-14T00:32:07.052Z,12.41
2023-05-14T00:33:07.188Z,12.39
2023-05-14T00:34:07.057Z,12.38
2023-05-14T00:35:07.027Z,12.37
2023-05-14T00:36:07.078Z,12.34
2023-05-14T00:37:07.015Z,12.37
2023-05-14T00:38:07.042Z,12.34
2023-05-14T00:39:06.983Z,12.37
2023-05-14T00:40:07.021Z,12.34
2023-05-14T00:41:06.984Z,12.34
2023-05-14T00:42:06.944Z,12.31
2023-05-14T00:43:06.944Z,12.34
2023-05-14T00:44:06.946Z,12.31
2023-05-14T00:45:06.890Z,12.31
2023-05-14T00:46:06.971Z,12.33
2023-05-14T00:47:06.982Z,12.33
2023-05-14T00:48:06.936Z,12.31
2023-05-14T00:49:06.848Z,12.30
2023-05-14T00:50:06.854Z,12.30
2023-05-14T00:51:06.893Z,12.29
2023-05-14T00:52:06.851Z,12.26
2023-05-14T00:53:06.835Z,12.26
2023-05-14T00:54:06.809Z,12.26
2023-05-14T00:55:06.827Z,12.24
2023-05-14T00:56:06.858Z,12.24
2023-05-14T00:57:06.784Z,12.23
2023-05-14T00:58:06.784Z,12.23
2023-05-14T00:59:06.732Z,12.21
2023-05-14T01:00:06.766Z,12.20
2023-05-14T01:01:06.861Z,12.20
2023-05-14T01:02:06.742Z,12.16
2023-05-14T01:03:06.829Z,12.16
2023-05-14T01:04:06.847Z,12.15
2023-05-14T01:05:06.695Z,12.12
2023-05-14T01:06:06.670Z,12.12
2023-05-14T01:07:06.657Z,12.13
2023-05-14T01:08:06.680Z,12.11
2023-05-14T01:09:06.655Z,12.12
2023-05-14T01:10:06.634Z,12.09
2023-05-14T01:11:06.628Z,12.09
2023-05-14T01:12:06.608Z,12.08
2023-05-14T01:13:06.572Z,12.08
2023-05-14T01:14:06.565Z,12.06
2023-05-14T01:15:06.584Z,12.06
2023-05-14T01:16:06.624Z,12.05
2023-05-14T01:17:06.520Z,12.02
2023-05-14T01:18:06.600Z,12.01
2023-05-14T01:19:06.608Z,11.99
2023-05-14T01:20:06.515Z,11.97
2023-05-14T01:21:06.478Z,11.96
2023-05-14T01:22:06.481Z,11.97
2023-05-14T01:23:06.503Z,12.01
2023-05-14T01:24:06.466Z,11.99
2023-05-14T01:25:06.455Z,11.99
2023-05-14T01:26:06.462Z,11.99
2023-05-14T01:27:06.439Z,11.99
2023-05-14T01:28:06.485Z,12.02
2023-05-14T01:29:06.401Z,12.01
2023-05-14T01:30:06.415Z,12.02
2023-05-14T01:31:06.366Z,12.01
2023-05-14T01:32:06.508Z,12.01
2023-05-14T01:33:06.489Z,11.97
2023-05-14T01:34:06.354Z,11.96
2023-05-14T01:35:06.349Z,11.94
2023-05-14T01:36:06.331Z,11.89
2023-05-14T01:37:06.317Z,11.89
2023-05-14T01:38:06.326Z,11.87
2023-05-14T01:39:06.295Z,11.86
2023-05-14T01:40:06.307Z,11.85
2023-05-14T01:41:06.276Z,11.85
2023-05-14T01:42:06.294Z,11.83
2023-05-14T01:43:06.391Z,11.80
2023-05-14T01:44:06.223Z,11.78
2023-05-14T01:45:06.219Z,11.77
2023-05-14T01:46:06.284Z,11.75
2023-05-14T01:47:06.177Z,11.74
2023-05-14T01:48:06.299Z,11.71
2023-05-14T01:49:06.174Z,11.68
2023-05-14T01:50:06.210Z,11.67
2023-05-14T01:51:06.181Z,11.64
2023-05-14T01:52:06.159Z,11.64
2023-05-14T01:53:06.140Z,11.64
2023-05-14T01:54:06.122Z,11.62
2023-05-14T01:55:06.154Z,11.62
2023-05-14T01:56:06.150Z,11.64
2023-05-14T01:57:06.084Z,11.64
2023-05-14T01:58:06.087Z,11.59
2023-05-14T01:59:06.066Z,11.54
2023-05-14T02:00:06.049Z,11.53
2023-05-14T02:01:06.121Z,11.52
2023-05-14T02:02:06.057Z,11.47
2023-05-14T02:03:06.051Z,11.46
2023-05-14T02:04:06.011Z,11.46
2023-05-14T02:05:07.049Z,11.43
2023-05-14T02:06:06.071Z,11.39
2023-05-14T02:07:05.944Z,11.41
2023-05-14T02:08:05.958Z,11.41
2023-05-14T02:09:05.945Z,11.41
2023-05-14T02:10:05.963Z,11.39
2023-05-14T02:11:05.933Z,11.39
2023-05-14T02:12:05.951Z,11.39
2023-05-14T02:13:05.877Z,11.36
2023-05-14T02:14:05.891Z,11.36
2023-05-14T02:15:05.852Z,11.36
2023-05-14T02:16:05.925Z,11.36
2023-05-14T02:17:05.837Z,11.35
2023-05-14T02:18:05.967Z,11.34
2023-05-14T02:19:05.891Z,11.32
2023-05-14T02:20:05.837Z,11.32
2023-05-14T02:21:05.798Z,11.34
2023-05-14T02:22:05.847Z,11.32
2023-05-14T02:23:05.790Z,11.31
2023-05-14T02:24:05.797Z,11.28
2023-05-14T02:25:07.217Z,11.28
2023-05-14T02:26:05.784Z,11.28
2023-05-14T02:27:05.738Z,11.28
2023-05-14T02:28:05.753Z,11.27
2023-05-14T02:29:05.724Z,11.27
2023-05-14T02:30:05.705Z,11.28
2023-05-14T02:31:05.764Z,11.29
2023-05-14T02:32:05.745Z,11.31
2023-05-14T02:33:05.723Z,11.31
2023-05-14T02:34:05.658Z,11.29
2023-05-14T02:35:05.668Z,11.29
2023-05-14T02:36:05.666Z,11.28
2023-05-14T02:37:05.675Z,11.28
2023-05-14T02:38:05.632Z,11.27
2023-05-14T02:39:05.592Z,11.25
2023-05-14T02:40:05.592Z,11.27
2023-05-14T02:41:05.557Z,11.24
2023-05-14T02:42:05.673Z,11.25
2023-05-14T02:43:05.545Z,11.24
2023-05-14T02:44:05.541Z,11.25
2023-05-14T02:45:05.544Z,11.27
2023-05-14T02:46:05.527Z,11.27
2023-05-14T02:47:05.565Z,11.28
2023-05-14T02:48:05.645Z,11.27
2023-05-14T02:49:05.504Z,11.25
2023-05-14T02:50:05.504Z,11.27
2023-05-14T02:51:05.450Z,11.29
2023-05-14T02:52:05.482Z,11.29
2023-05-14T02:53:05.538Z,11.28
2023-05-14T02:54:05.428Z,11.28
2023-05-14T02:55:05.401Z,11.25
2023-05-14T02:56:05.425Z,11.24
2023-05-14T02:57:05.405Z,11.20
2023-05-14T02:58:05.387Z,11.20
2023-05-14T02:59:05.454Z,11.20
2023-05-14T03:00:05.354Z,11.20
2023-05-14T03:01:05.382Z,11.19
2023-05-14T03:02:05.408Z,11.17
2023-05-14T03:03:05.353Z,11.17
2023-05-14T03:04:05.308Z,11.14
2023-05-14T03:05:05.403Z,11.11
2023-05-14T03:06:05.297Z,11.13
2023-05-14T03:07:05.267Z,11.11
2023-05-14T03:08:05.291Z,11.10
2023-05-14T03:09:05.265Z,11.09
2023-05-14T03:10:05.234Z,11.07
2023-05-14T03:11:05.265Z,11.06
2023-05-14T03:12:05.281Z,11.03
2023-05-14T03:13:05.226Z,11.06
2023-05-14T03:14:05.213Z,11.01
2023-05-14T03:15:05.193Z,10.99
2023-05-14T03:16:05.205Z,11.01
2023-05-14T03:17:05.295Z,10.95
2023-05-14T03:18:05.262Z,10.94
2023-05-14T03:19:05.182Z,10.94
2023-05-14T03:20:05.145Z,10.92
2023-05-14T03:21:05.135Z,10.89
2023-05-14T03:22:05.130Z,10.89
2023-05-14T03:23:05.076Z,10.88
2023-05-14T03:24:05.135Z,10.86
2023-05-14T03:25:05.062Z,10.86
2023-05-14T03:26:05.046Z,10.83
2023-05-14T03:27:05.045Z,10.84
2023-05-14T03:28:05.044Z,10.84
2023-05-14T03:29:05.047Z,10.81
2023-05-14T03:30:05.029Z,10.81
2023-05-14T03:31:05.039Z,10.81
2023-05-14T03:32:04.999Z,10.78
2023-05-14T03:33:05.051Z,10.77
2023-05-14T03:34:04.997Z,10.78
2023-05-14T03:35:05.034Z,10.78
2023-05-14T03:36:04.932Z,10.78
2023-05-14T03:37:04.958Z,10.78
2023-05-14T03:38:05.081Z,10.78
2023-05-14T03:39:04.935Z,10.78
2023-05-14T03:40:04.875Z,10.81
2023-05-14T03:41:04.884Z,10.78
2023-05-14T03:42:04.875Z,10.77
2023-05-14T03:43:04.891Z,10.73
2023-05-14T03:44:04.836Z,10.71
2023-05-14T03:45:04.845Z,10.71
2023-05-14T03:46:04.847Z,10.71
2023-05-14T03:47:04.817Z,10.73
2023-05-14T03:48:04.874Z,10.71
2023-05-14T03:49:04.846Z,10.70
2023-05-14T03:50:04.768Z,10.68
2023-05-14T03:51:04.771Z,10.66
2023-05-14T03:52:04.769Z,10.66
2023-05-14T03:53:04.786Z,10.65
2023-05-14T03:54:04.724Z,10.68
2023-05-14T03:55:04.708Z,10.70
2023-05-14T03:56:04.693Z,10.70
2023-05-14T03:57:04.689Z,10.68
2023-05-14T03:58:04.786Z,10.68
2023-05-14T03:59:04.713Z,10.66
2023-05-14T04:00:04.650Z,10.68
2023-05-14T04:01:04.674Z,10.68
2023-05-14T04:02:04.651Z,10.66
2023-05-14T04:03:04.711Z,10.65
2023-05-14T04:04:04.707Z,10.65
2023-05-14T04:05:04.599Z,10.65
2023-05-14T04:06:04.613Z,10.66
2023-05-14T04:07:04.619Z,10.65
2023-05-14T04:08:04.577Z,10.66
2023-05-14T04:09:04.578Z,10.68
2023-05-14T04:10:04.887Z,10.68
2023-05-14T04:11:04.582Z,10.68
2023-05-14T04:12:04.524Z,10.68
2023-05-14T04:13:04.540Z,10.68
2023-05-14T04:14:04.515Z,10.68
2023-05-14T04:15:04.501Z,10.70
2023-05-14T04:16:04.552Z,10.68
2023-05-14T04:17:04.491Z,10.66
2023-05-14T04:18:04.486Z,10.66
2023-05-14T04:19:04.475Z,10.68
2023-05-14T04:20:04.443Z,10.70
2023-05-14T04:21:04.421Z,10.66
2023-05-14T04:22:04.435Z,10.70
2023-05-14T04:23:04.418Z,10.70
2023-05-14T04:24:04.384Z,10.68
2023-05-14T04:25:04.457Z,10.68
2023-05-14T04:26:04.377Z,10.70
2023-05-14T04:27:04.345Z,10.66
2023-05-14T04:28:04.343Z,10.66
2023-05-14T04:29:04.329Z,10.66
2023-05-14T04:30:04.430Z,10.65
2023-05-14T04:31:04.323Z,10.68
2023-05-14T04:32:04.342Z,10.70
2023-05-14T04:33:04.334Z,10.70
2023-05-14T04:34:04.239Z,10.71
2023-05-14T04:35:04.245Z,10.68
2023-05-14T04:36:04.281Z,10.68
2023-05-14T04:37:04.248Z,10.70
2023-05-14T04:38:04.229Z,10.66
2023-05-14T04:39:04.200Z,10.70
2023-05-14T04:40:04.221Z,10.68
2023-05-14T04:41:04.203Z,10.70
2023-05-14T04:42:04.169Z,10.68
2023-05-14T04:43:04.179Z,10.71
2023-05-14T04:44:04.144Z,10.70
2023-05-14T04:45:04.127Z,10.73
2023-05-14T04:46:04.188Z,10.70
2023-05-14T04:47:04.108Z,10.71
2023-05-14T04:48:04.159Z,10.76
2023-05-14T04:49:04.094Z,10.74
2023-05-14T04:50:04.084Z,10.74
2023-05-14T04:51:05.623Z,10.76
2023-05-14T04:52:04.078Z,10.76
2023-05-14T04:53:04.072Z,10.76
2023-05-14T04:54:04.046Z,10.77
2023-05-14T04:55:04.043Z,10.77
2023-05-14T04:56:04.136Z,10.76
2023-05-14T04:57:03.994Z,10.76
2023-05-14T04:58:04.005Z,10.77
2023-05-14T04:59:03.968Z,10.78
2023-05-14T05:00:03.936Z,10.78
2023-05-14T05:01:04.036Z,10.80
2023-05-14T05:02:03.969Z,10.80
2023-05-14T05:03:03.991Z,10.81
2023-05-14T05:04:03.973Z,10.83
2023-05-14T05:05:03.898Z,10.84
2023-05-14T05:06:03.878Z,10.88
2023-05-14T05:07:03.901Z,10.86
2023-05-14T05:08:03.895Z,10.89
2023-05-14T05:09:03.865Z,10.92
2023-05-14T05:10:03.869Z,10.92
2023-05-14T05:11:03.851Z,10.96
2023-05-14T05:12:03.802Z,10.96
2023-05-14T05:13:03.864Z,10.99
2023-05-14T05:14:03.784Z,11.01
2023-05-14T05:15:03.805Z,11.01
2023-05-14T05:16:03.813Z,11.02
2023-05-14T05:17:03.758Z,11.06
2023-05-14T05:18:03.850Z,11.10
2023-05-14T05:19:03.825Z,11.09
2023-05-14T05:20:03.730Z,11.09
2023-05-14T05:21:03.743Z,11.10
2023-05-14T05:22:03.705Z,11.10
2023-05-14T05:23:03.791Z,11.11
2023-05-14T05:24:03.665Z,11.13
2023-05-14T05:25:03.707Z,11.11
2023-05-14T05:26:03.649Z,11.14
2023-05-14T05:27:03.701Z,11.17
2023-05-14T05:28:03.661Z,11.17
2023-05-14T05:29:03.649Z,11.19
2023-05-14T05:30:03.605Z,11.20
2023-05-14T05:31:03.649Z,11.24
2023-05-14T05:32:03.602Z,11.25
2023-05-14T05:33:03.767Z,11.27
2023-05-14T05:34:03.555Z,11.28
2023-05-14T05:35:03.562Z,11.31
2023-05-14T05:36:03.556Z,11.34
2023-05-14T05:37:03.550Z,11.32
2023-05-14T05:38:03.527Z,11.34
2023-05-14T05:39:05.184Z,11.36
2023-05-14T05:40:03.531Z,11.38
2023-05-14T05:41:03.511Z,11.39
2023-05-14T05:42:03.459Z,11.41
2023-05-14T05:43:03.567Z,11.44
2023-05-14T05:44:03.471Z,11.47
2023-05-14T05:45:03.463Z,11.49
2023-05-14T05:46:03.503Z,11.50
2023-05-14T05:47:03.434Z,11.52
2023-05-14T05:48:03.494Z,11.53
2023-05-14T05:49:03.443Z,11.56
2023-05-14T05:50:03.363Z,11.59
2023-05-14T05:51:05.075Z,11.61
2023-05-14T05:52:03.332Z,11.64
2023-05-14T05:53:03.390Z,11.67
2023-05-14T05:54:10.355Z,11.68
2023-05-14T05:55:03.343Z,11.71
2023-05-14T05:56:05.018Z,11.74
2023-05-14T05:57:03.350Z,11.77
2023-05-14T05:58:03.267Z,11.82
2023-05-14T05:59:03.300Z,11.85
2023-05-14T06:00:03.288Z,11.86
2023-05-14T06:01:03.278Z,11.86
2023-05-14T06:02:03.301Z,11.89
2023-05-14T06:03:03.280Z,11.93
2023-05-14T06:04:03.230Z,11.94
2023-05-14T06:05:03.431Z,11.97
2023-05-14T06:06:03.261Z,11.99
2023-05-14T06:07:03.225Z,12.01
2023-05-14T06:08:03.188Z,12.05
2023-05-14T06:09:03.184Z,12.06
2023-05-14T06:10:03.160Z,12.08
2023-05-14T06:11:03.141Z,12.11
2023-05-14T06:12:03.141Z,12.11
2023-05-14T06:13:03.109Z,12.12
2023-05-14T06:14:03.116Z,12.15
2023-05-14T06:15:03.114Z,12.19
2023-05-14T06:16:03.103Z,12.23
2023-05-14T06:17:03.077Z,12.24
2023-05-14T06:18:03.161Z,12.27
2023-05-14T06:19:03.250Z,12.30
2023-05-14T06:20:03.102Z,12.34
2023-05-14T06:21:03.022Z,12.39
2023-05-14T06:22:02.997Z,12.42
2023-05-14T06:23:03.017Z,12.42
2023-05-14T06:24:02.975Z,12.45
2023-05-14T06:25:02.972Z,12.48
2023-05-14T06:26:07.337Z,12.49
2023-05-14T06:27:03.697Z,12.52
2023-05-14T06:28:02.941Z,12.57
2023-05-14T06:29:02.965Z,12.60
2023-05-14T06:30:02.905Z,12.62
2023-05-14T06:31:02.910Z,12.66
2023-05-14T06:32:02.940Z,12.70
2023-05-14T06:33:02.931Z,12.71
2023-05-14T06:34:02.897Z,12.77
2023-05-14T06:35:02.893Z,12.79
2023-05-14T06:36:02.840Z,12.84
2023-05-14T06:37:02.874Z,12.87
2023-05-14T06:38:02.852Z,12.92
2023-05-14T06:39:02.840Z,12.93
2023-05-14T06:40:02.825Z,12.96
2023-05-14T06:41:02.918Z,12.99
2023-05-14T06:42:02.787Z,13.02
2023-05-14T06:43:05.258Z,13.07
2023-05-14T06:44:02.737Z,13.09
2023-05-14T06:45:02.807Z,13.12
2023-05-14T06:46:02.736Z,13.15
2023-05-14T06:47:02.765Z,13.20
2023-05-14T06:48:02.827Z,13.24
2023-05-14T06:49:02.728Z,13.27
2023-05-14T06:50:02.726Z,13.32
2023-05-14T06:51:02.692Z,13.37
2023-05-14T06:52:02.691Z,13.41
2023-05-14T06:53:02.733Z,13.46
2023-05-14T06:54:02.667Z,13.49
2023-05-14T06:55:02.630Z,13.54
2023-05-14T06:56:02.615Z,13.56
2023-05-14T06:57:02.601Z,13.62
2023-05-14T06:58:02.639Z,13.69
2023-05-14T06:59:02.614Z,13.73
2023-05-14T07:00:03.722Z,13.76
2023-05-14T07:01:02.614Z,13.80
2023-05-14T07:02:02.563Z,13.84
2023-05-14T07:03:02.641Z,13.88
2023-05-14T07:04:02.512Z,13.91
2023-05-14T07:05:02.545Z,13.96
2023-05-14T07:06:02.534Z,14.01
2023-05-14T07:07:02.498Z,14.06
2023-05-14T07:08:02.495Z,14.10
2023-05-14T07:09:02.496Z,14.16
2023-05-14T07:10:02.440Z,14.21
2023-05-14T07:11:02.557Z,14.27
2023-05-14T07:12:02.440Z,14.34
2023-05-14T07:13:02.451Z,14.38
2023-05-14T07:14:02.440Z,14.44
2023-05-14T07:15:02.606Z,14.49
2023-05-14T07:16:02.367Z,14.53
2023-05-14T07:17:02.474Z,14.60
2023-05-14T07:18:02.419Z,14.64
2023-05-14T07:19:02.356Z,14.71
2023-05-14T07:20:02.351Z,14.78
2023-05-14T07:21:02.366Z,14.84
2023-05-14T07:22:02.333Z,14.88
2023-05-14T07:23:02.353Z,14.94
2023-05-14T07:24:02.321Z,14.99
2023-05-14T07:25:02.302Z,15.06
2023-05-14T07:26:02.364Z,15.11
2023-05-14T07:27:02.285Z,15.17
2023-05-14T07:28:02.250Z,15.24
2023-05-14T07:29:02.269Z,15.31
2023-05-14T07:30:02.228Z,15.39
2023-05-14T07:31:02.283Z,15.46
2023-05-14T07:32:02.249Z,15.54
2023-05-14T07:33:02.278Z,15.61
2023-05-14T07:34:02.188Z,15.63
2023-05-14T07:35:02.169Z,15.72
2023-05-14T07:36:02.232Z,15.79
2023-05-14T07:37:02.170Z,15.84
2023-05-14T07:38:02.139Z,15.94
2023-05-14T07:39:02.141Z,16.04
2023-05-14T07:40:02.117Z,16.12
2023-05-14T07:41:02.151Z,16.20
2023-05-14T07:42:02.085Z,16.27
2023-05-14T07:43:02.080Z,16.34
2023-05-14T07:44:02.054Z,16.41
2023-05-14T07:45:02.043Z,16.48
2023-05-14T07:46:02.095Z,16.55
2023-05-14T07:47:02.080Z,16.58
2023-05-14T07:48:02.189Z,16.65
2023-05-14T07:49:02.019Z,16.70
2023-05-14T07:50:02.057Z,16.77
2023-05-14T07:51:02.065Z,16.81
2023-05-14T07:52:02.036Z,16.86
2023-05-14T07:53:01.980Z,16.89
2023-05-14T07:54:01.970Z,16.92
2023-05-14T07:55:02.051Z,16.98
2023-05-14T07:56:01.945Z,17.03
2023-05-14T07:57:01.942Z,17.07
2023-05-14T07:58:01.924Z,17.10
2023-05-14T07:59:01.873Z,17.13
2023-05-14T08:00:01.871Z,17.17
2023-05-14T08:01:01.843Z,17.22
2023-05-14T08:02:01.983Z,17.28
2023-05-14T08:03:01.943Z,17.29
2023-05-14T08:04:01.879Z,17.36
2023-05-14T08:05:01.795Z,17.41
2023-05-14T08:06:01.798Z,17.47
2023-05-14T08:07:01.798Z,17.50
2023-05-14T08:08:01.829Z,17.57
2023-05-14T08:09:01.747Z,17.63
2023-05-14T08:10:01.800Z,17.67
2023-05-14T08:11:01.829Z,17.74
2023-05-14T08:12:01.725Z,17.76
2023-05-14T08:13:01.745Z,17.79
2023-05-14T08:14:01.739Z,17.82
2023-05-14T08:15:01.704Z,17.88
2023-05-14T08:16:01.816Z,17.94
2023-05-14T08:17:01.693Z,17.99
2023-05-14T08:18:01.768Z,18.06
2023-05-14T08:19:01.677Z,18.10
2023-05-14T08:20:01.632Z,18.15
2023-05-14T08:21:03.314Z,18.18
2023-05-14T08:22:01.677Z,18.19
2023-05-14T08:23:01.597Z,18.24
2023-05-14T08:24:01.624Z,18.28
2023-05-14T08:25:01.640Z,18.31
2023-05-14T08:26:01.586Z,18.36
2023-05-14T08:27:01.591Z,18.42
2023-05-14T08:28:01.553Z,18.39
2023-05-14T08:29:01.548Z,18.39
2023-05-14T08:30:01.528Z,18.43
2023-05-14T08:31:01.611Z,18.47
2023-05-14T08:32:08.430Z,18.47
2023-05-14T08:33:02.538Z,18.52
2023-05-14T08:34:01.553Z,18.58
2023-05-14T08:35:01.482Z,18.64
2023-05-14T08:36:01.484Z,18.68
2023-05-14T08:37:01.460Z,18.73
2023-05-14T08:38:01.462Z,18.77
2023-05-14T08:39:01.436Z,18.84
2023-05-14T08:40:01.460Z,18.84
2023-05-14T08:41:01.410Z,18.87
2023-05-14T08:42:01.396Z,18.92
2023-05-14T08:43:01.365Z,18.98
2023-05-14T08:44:01.398Z,19.05
2023-05-14T08:45:01.480Z,19.10
2023-05-14T08:46:01.338Z,19.11
2023-05-14T08:47:01.326Z,19.13
2023-05-14T08:48:01.445Z,19.13
2023-05-14T08:49:01.365Z,19.17
2023-05-14T08:50:01.318Z,19.18
2023-05-14T08:51:01.394Z,19.24
2023-05-14T08:52:01.282Z,19.23
2023-05-14T08:53:01.272Z,19.25
2023-05-14T08:54:01.273Z,19.32
2023-05-14T08:55:01.230Z,19.35
2023-05-14T08:56:01.252Z,19.36
2023-05-14T08:57:01.253Z,19.38
2023-05-14T08:58:01.237Z,19.39
2023-05-14T08:59:01.172Z,19.40
2023-05-14T09:00:01.234Z,19.42
2023-05-14T09:01:01.178Z,19.47
2023-05-14T09:02:01.391Z,19.53
2023-05-14T09:03:01.156Z,19.58
2023-05-14T09:04:01.193Z,19.65
2023-05-14T09:05:01.108Z,19.69
2023-05-14T09:06:01.104Z,19.68
2023-05-14T09:07:01.121Z,19.69
2023-05-14T09:08:01.141Z,19.73
2023-05-14T09:09:01.082Z,19.78
2023-05-14T09:10:01.088Z,19.83
2023-05-14T09:11:01.088Z,19.88
2023-05-14T09:12:01.070Z,19.90
2023-05-14T09:13:01.079Z,19.95
2023-05-14T09:14:01.022Z,19.97
2023-05-14T09:15:01.026Z,19.95
2023-05-14T09:16:01.051Z,19.97
2023-05-14T09:17:00.996Z,19.98
2023-05-14T09:18:01.000Z,19.98
2023-05-14T09:19:01.020Z,20.00
2023-05-14T09:20:00.947Z,20.06
2023-05-14T09:21:00.945Z,20.12
2023-05-14T09:22:00.920Z,20.20
2023-05-14T09:23:00.893Z,20.23
2023-05-14T09:24:00.926Z,20.28
2023-05-14T09:25:00.933Z,20.31
2023-05-14T09:26:00.899Z,20.38
2023-05-14T09:27:00.857Z,20.39
2023-05-14T09:28:00.847Z,20.38
2023-05-14T09:29:00.864Z,20.39
2023-05-14T09:30:16.310Z,20.38
2023-05-14T09:31:00.795Z,20.41
2023-05-14T09:32:00.866Z,20.49
2023-05-14T09:33:00.916Z,20.53
2023-05-14T09:34:00.786Z,20.54
2023-05-14T09:35:00.752Z,20.58
2023-05-14T09:36:00.798Z,20.58
2023-05-14T09:37:00.734Z,20.62
2023-05-14T09:38:00.751Z,20.62
2023-05-14T09:39:00.711Z,20.61
2023-05-14T09:40:00.756Z,20.56
2023-05-14T09:41:00.754Z,20.59
2023-05-14T09:42:00.719Z,20.64
2023-05-14T09:43:00.670Z,20.62
2023-05-14T09:44:00.817Z,20.64
2023-05-14T09:45:00.638Z,20.62
2023-05-14T09:46:00.668Z,20.62
2023-05-14T09:47:00.667Z,20.59
2023-05-14T09:48:00.739Z,20.61
2023-05-14T09:49:00.643Z,20.62
2023-05-14T09:50:00.697Z,20.64
2023-05-14T09:51:01.435Z,20.69
2023-05-14T09:52:00.574Z,20.74
2023-05-14T09:53:00.545Z,20.79
2023-05-14T09:54:00.554Z,20.84
2023-05-14T09:55:00.600Z,20.90
2023-05-14T09:56:00.577Z,20.95
2023-05-14T09:57:00.503Z,20.91
2023-05-14T09:58:00.518Z,20.90
2023-05-14T09:59:00.501Z,20.80
2023-05-14T10:00:00.512Z,20.74
2023-05-14T10:01:00.525Z,20.64
2023-05-14T10:02:00.455Z,20.65
2023-05-14T10:03:00.522Z,20.64
2023-05-14T10:04:00.597Z,20.64
2023-05-14T10:05:00.408Z,20.66
2023-05-14T10:06:00.460Z,20.68
2023-05-14T10:07:00.414Z,20.71
2023-05-14T10:08:00.425Z,20.72
2023-05-14T10:09:00.384Z,20.76
2023-05-14T10:10:00.371Z,20.80
2023-05-14T10:11:00.386Z,20.87
2023-05-14T10:12:00.370Z,20.96
2023-05-14T10:13:00.336Z,21.04
2023-05-14T10:14:00.320Z,21.11
2023-05-14T10:15:00.314Z,21.19
2023-05-14T10:16:00.311Z,21.26
2023-05-14T10:17:00.302Z,21.35
2023-05-14T10:18:00.355Z,21.39
2023-05-14T10:19:00.329Z,21.44
2023-05-14T10:20:01.945Z,21.48
2023-05-14T10:21:00.219Z,21.51
2023-05-14T10:22:00.251Z,21.54
2023-05-14T10:23:00.198Z,21.51
2023-05-14T10:24:00.214Z,21.50
2023-05-14T10:25:00.250Z,21.50
2023-05-14T10:26:00.193Z,21.56
2023-05-14T10:27:00.164Z,21.51
2023-05-14T10:28:00.183Z,21.51
2023-05-14T10:29:00.145Z,21.48
2023-05-14T10:30:00.218Z,21.45
2023-05-14T10:31:00.264Z,21.42
2023-05-14T10:32:00.149Z,21.44
2023-05-14T10:33:00.169Z,21.45
2023-05-14T10:34:00.146Z,21.48
2023-05-14T10:35:00.096Z,21.48
2023-05-14T10:36:00.135Z,21.48
2023-05-14T10:37:00.037Z,21.46
2023-05-14T10:38:00.065Z,21.51
2023-05-14T10:39:00.047Z,21.57
2023-05-14T10:40:00.111Z,21.64
2023-05-14T10:41:00.026Z,21.63
2023-05-14T10:42:00.027Z,21.60
2023-05-14T10:42:59.971Z,21.64
2023-05-14T10:43:59.995Z,21.67
2023-05-14T10:44:59.974Z,21.61
2023-05-14T10:46:00.031Z,21.61
2023-05-14T10:47:00.011Z,21.59
2023-05-14T10:47:59.976Z,21.64
2023-05-14T10:48:59.926Z,21.66
2023-05-14T10:49:59.925Z,21.66
2023-05-14T10:50:59.938Z,21.71
2023-05-14T10:51:59.906Z,21.78
2023-05-14T10:52:59.863Z,21.83
2023-05-14T10:53:59.884Z,21.82
2023-05-14T10:55:02.644Z,21.83
2023-05-14T10:55:59.861Z,21.91
2023-05-14T10:56:59.831Z,21.97
2023-05-14T10:57:59.826Z,21.99
2023-05-14T10:58:59.818Z,21.94
2023-05-14T10:59:59.796Z,21.98
2023-05-14T11:00:59.766Z,22.02
2023-05-14T11:01:59.876Z,21.99
2023-05-14T11:02:59.797Z,22.02
2023-05-14T11:03:59.788Z,22.06
2023-05-14T11:04:59.753Z,21.99
2023-05-14T11:05:59.748Z,21.95
2023-05-14T11:06:59.711Z,21.97
2023-05-14T11:07:59.752Z,21.91
2023-05-14T11:08:59.709Z,21.91
2023-05-14T11:09:59.675Z,21.90
2023-05-14T11:10:59.659Z,21.88
2023-05-14T11:11:59.682Z,21.83
2023-05-14T11:12:59.653Z,21.76
2023-05-14T11:13:59.672Z,21.71
2023-05-14T11:14:59.677Z,21.64
2023-05-14T11:16:02.262Z,21.67
2023-05-14T11:17:00.668Z,21.75
2023-05-14T11:17:59.778Z,21.83
2023-05-14T11:18:59.641Z,21.75
2023-05-14T11:19:59.589Z,21.75
2023-05-14T11:20:59.598Z,21.72
2023-05-14T11:21:59.627Z,21.67
2023-05-14T11:22:59.510Z,21.75
2023-05-14T11:23:59.554Z,21.85
2023-05-14T11:24:59.542Z,21.94
2023-05-14T11:25:59.546Z,22.01
2023-05-14T11:26:59.496Z,22.07
2023-05-14T11:27:59.472Z,22.12
2023-05-14T11:28:59.458Z,22.16
2023-05-14T11:29:59.477Z,22.10
2023-05-14T11:30:59.440Z,22.13
2023-05-14T11:31:59.572Z,22.16
2023-05-14T11:33:01.771Z,22.19
2023-05-14T11:33:59.445Z,22.20
2023-05-14T11:34:59.394Z,22.28
2023-05-14T11:35:59.417Z,22.32
2023-05-14T11:36:59.388Z,22.41
2023-05-14T11:37:59.406Z,22.46
2023-05-14T11:38:59.361Z,22.41
2023-05-14T11:39:59.340Z,22.41
2023-05-14T11:40:59.328Z,22.44
2023-05-14T11:41:59.347Z,22.41
2023-05-14T11:42:59.300Z,22.39
2023-05-14T11:43:59.325Z,22.37
2023-05-14T11:44:59.266Z,22.34
2023-05-14T11:45:59.398Z,22.34
2023-05-14T11:46:59.268Z,22.38
2023-05-14T11:47:59.284Z,22.46
2023-05-14T11:48:59.248Z,22.50
2023-05-14T11:49:59.219Z,22.56
2023-05-14T11:50:59.220Z,22.57
2023-05-14T11:51:59.262Z,22.64
2023-05-14T11:52:59.176Z,22.60
2023-05-14T11:53:59.211Z,22.68
2023-05-14T11:54:59.186Z,22.69
2023-05-14T11:55:59.182Z,22.59
2023-05-14T11:56:59.254Z,22.53
2023-05-14T11:57:59.172Z,22.53
2023-05-14T11:58:59.129Z,22.54
2023-05-14T11:59:59.105Z,22.54
2023-05-14T12:00:59.111Z,22.56
2023-05-14T12:01:59.091Z,22.62
2023-05-14T12:02:59.185Z,22.71
2023-05-14T12:03:59.128Z,22.77
2023-05-14T12:04:59.072Z,22.80
2023-05-14T12:05:59.025Z,22.78
2023-05-14T12:06:59.054Z,22.83
2023-05-14T12:07:59.043Z,22.87
2023-05-14T12:08:59.004Z,22.87
2023-05-14T12:09:59.033Z,22.89
2023-05-14T12:10:59.011Z,22.92
2023-05-14T12:11:58.978Z,22.92
2023-05-14T12:12:58.957Z,22.92
2023-05-14T12:13:58.946Z,22.94
2023-05-14T12:14:58.923Z,23.01
2023-05-14T12:15:59.023Z,23.09
2023-05-14T12:16:58.906Z,23.17
2023-05-14T12:17:58.967Z,23.12
2023-05-14T12:18:58.923Z,23.14
2023-05-14T12:19:58.940Z,23.15
2023-05-14T12:20:58.891Z,23.15
2023-05-14T12:21:58.862Z,23.05
2023-05-14T12:22:58.832Z,23.04
2023-05-14T12:23:58.855Z,23.09
2023-05-14T12:24:58.851Z,23.12
2023-05-14T12:26:13.520Z,23.17
2023-05-14T12:26:58.811Z,23.23
2023-05-14T12:27:58.789Z,23.26
2023-05-14T12:28:58.764Z,23.26
2023-05-14T12:30:06.282Z,23.31
2023-05-14T12:30:59.770Z,23.38
2023-05-14T12:31:58.799Z,23.29
2023-05-14T12:32:58.745Z,23.22
2023-05-14T12:33:58.893Z,23.05
2023-05-14T12:34:58.728Z,22.96
2023-05-14T12:36:00.513Z,22.90
2023-05-14T12:36:59.676Z,22.90
2023-05-14T12:37:58.676Z,22.92
2023-05-14T12:38:58.682Z,22.90
2023-05-14T12:39:58.737Z,22.87
2023-05-14T12:40:58.654Z,22.90
2023-05-14T12:41:58.675Z,22.86
2023-05-14T12:42:58.599Z,22.75
2023-05-14T12:43:58.662Z,22.57
2023-05-14T12:44:58.625Z,22.57
2023-05-14T12:45:58.628Z,22.64
2023-05-14T12:46:58.605Z,22.68
2023-05-14T12:47:58.626Z,22.74
2023-05-14T12:48:58.547Z,22.83
2023-05-14T12:49:58.614Z,22.84
2023-05-14T12:50:58.520Z,22.90
2023-05-14T12:52:13.117Z,22.94